sensor_id;sensor_type;location;lat;lon;timestamp;P1;durP1;ratioP1;P2;durP2;ratioP2
61188;SDS011;47054;39.716;2.904;2023-02-19T00:00:05;15.38;;;7.47;;
61188;SDS011;47054;39.716;2.904;2023-02-19T00:02:57;13.60;;;7.72;;
61188;SDS011;47054;39.716;2.904;2023-02-19T00:05:42;13.48;;;7.53;;
61188;SDS011;47054;39.716;2.904;2023-02-19T00:08:27;11.40;;;6.78;;
61188;SDS011;47054;39.716;2.904;2023-02-19T00:11:15;14.30;;;7.57;;
61188;SDS011;47054;39.716;2.904;2023-02-19T00:14:02;12.13;;;7.00;;
61188;SDS011;47054;39.716;2.904;2023-02-19T00:16:47;10.95;;;6.57;;
61188;SDS011;47054;39.716;2.904;2023-02-19T00:19:32;10.90;;;6.78;;
61188;SDS011;47054;39.716;2.904;2023-02-19T00:22:17;12.57;;;7.28;;
61188;SDS011;47054;39.716;2.904;2023-02-19T00:25:02;13.20;;;7.30;;
61188;SDS011;47054;39.716;2.904;2023-02-19T00:27:47;13.20;;;7.00;;
61188;SDS011;47054;39.716;2.904;2023-02-19T00:30:31;11.02;;;6.95;;
61188;SDS011;47054;39.716;2.904;2023-02-19T00:33:16;14.10;;;6.97;;
61188;SDS011;47054;39.716;2.904;2023-02-19T00:36:00;12.93;;;6.88;;
61188;SDS011;47054;39.716;2.904;2023-02-19T00:38:46;11.55;;;6.55;;
61188;SDS011;47054;39.716;2.904;2023-02-19T00:41:32;13.63;;;7.15;;
61188;SDS011;47054;39.716;2.904;2023-02-19T00:44:17;14.73;;;7.13;;
61188;SDS011;47054;39.716;2.904;2023-02-19T00:47:02;12.25;;;7.28;;
61188;SDS011;47054;39.716;2.904;2023-02-19T00:49:48;11.80;;;6.43;;
61188;SDS011;47054;39.716;2.904;2023-02-19T00:52:33;14.05;;;7.00;;
61188;SDS011;47054;39.716;2.904;2023-02-19T00:55:18;10.25;;;6.43;;
61188;SDS011;47054;39.716;2.904;2023-02-19T00:58:02;11.25;;;6.47;;
61188;SDS011;47054;39.716;2.904;2023-02-19T01:00:47;13.63;;;6.65;;
61188;SDS011;47054;39.716;2.904;2023-02-19T01:03:32;12.15;;;6.85;;
61188;SDS011;47054;39.716;2.904;2023-02-19T01:06:18;13.07;;;6.43;;
61188;SDS011;47054;39.716;2.904;2023-02-19T01:09:04;11.32;;;6.00;;
61188;SDS011;47054;39.716;2.904;2023-02-19T01:11:50;13.45;;;6.65;;
61188;SDS011;47054;39.716;2.904;2023-02-19T01:14:35;12.73;;;6.43;;
61188;SDS011;47054;39.716;2.904;2023-02-19T01:17:20;10.10;;;5.95;;
61188;SDS011;47054;39.716;2.904;2023-02-19T01:20:05;10.98;;;6.18;;
61188;SDS011;47054;39.716;2.904;2023-02-19T01:22:50;11.75;;;6.20;;
61188;SDS011;47054;39.716;2.904;2023-02-19T01:25:36;11.80;;;6.40;;
61188;SDS011;47054;39.716;2.904;2023-02-19T01:28:22;10.95;;;5.85;;
61188;SDS011;47054;39.716;2.904;2023-02-19T01:31:07;12.45;;;6.18;;
61188;SDS011;47054;39.716;2.904;2023-02-19T01:33:56;10.57;;;6.40;;
61188;SDS011;47054;39.716;2.904;2023-02-19T01:36:42;11.25;;;5.82;;
61188;SDS011;47054;39.716;2.904;2023-02-19T01:39:26;9.82;;;5.65;;
61188;SDS011;47054;39.716;2.904;2023-02-19T01:42:15;10.88;;;5.78;;
61188;SDS011;47054;39.716;2.904;2023-02-19T01:48:13;9.77;;;5.47;;
61188;SDS011;47054;39.716;2.904;2023-02-19T01:53:54;12.85;;;5.43;;
61188;SDS011;47054;39.716;2.904;2023-02-19T01:56:42;9.95;;;5.60;;
61188;SDS011;47054;39.716;2.904;2023-02-19T01:59:30;11.02;;;5.85;;
61188;SDS011;47054;39.716;2.904;2023-02-19T02:02:15;8.48;;;5.18;;
61188;SDS011;47054;39.716;2.904;2023-02-19T02:05:00;9.02;;;5.40;;
61188;SDS011;47054;39.716;2.904;2023-02-19T02:07:46;10.25;;;5.40;;
61188;SDS011;47054;39.716;2.904;2023-02-19T02:10:49;10.23;;;5.35;;
61188;SDS011;47054;39.716;2.904;2023-02-19T02:13:36;9.15;;;5.47;;
61188;SDS011;47054;39.716;2.904;2023-02-19T02:26:15;9.60;;;6.00;;
61188;SDS011;47054;39.716;2.904;2023-02-19T02:29:17;11.70;;;5.90;;
61188;SDS011;47054;39.716;2.904;2023-02-19T02:32:16;10.60;;;5.80;;
61188;SDS011;47054;39.716;2.904;2023-02-19T02:35:09;11.95;;;6.45;;
61188;SDS011;47054;39.716;2.904;2023-02-19T02:37:58;11.63;;;6.63;;
61188;SDS011;47054;39.716;2.904;2023-02-19T02:40:46;12.85;;;7.10;;
61188;SDS011;47054;39.716;2.904;2023-02-19T02:43:32;11.30;;;6.03;;
61188;SDS011;47054;39.716;2.904;2023-02-19T02:46:18;13.43;;;6.80;;
61188;SDS011;47054;39.716;2.904;2023-02-19T02:49:14;12.30;;;7.00;;
61188;SDS011;47054;39.716;2.904;2023-02-19T02:52:04;12.57;;;6.20;;
61188;SDS011;47054;39.716;2.904;2023-02-19T02:55:09;14.68;;;7.35;;
61188;SDS011;47054;39.716;2.904;2023-02-19T02:57:54;14.57;;;7.20;;
61188;SDS011;47054;39.716;2.904;2023-02-19T03:00:40;13.80;;;6.80;;
61188;SDS011;47054;39.716;2.904;2023-02-19T03:03:47;14.75;;;7.47;;
61188;SDS011;47054;39.716;2.904;2023-02-19T03:06:37;12.68;;;7.32;;
61188;SDS011;47054;39.716;2.904;2023-02-19T03:09:25;14.20;;;6.88;;
61188;SDS011;47054;39.716;2.904;2023-02-19T03:12:16;12.93;;;7.18;;
61188;SDS011;47054;39.716;2.904;2023-02-19T03:15:21;13.80;;;7.05;;
61188;SDS011;47054;39.716;2.904;2023-02-19T03:18:26;14.05;;;7.47;;
61188;SDS011;47054;39.716;2.904;2023-02-19T03:21:35;12.45;;;6.80;;
61188;SDS011;47054;39.716;2.904;2023-02-19T03:24:26;12.18;;;6.28;;
61188;SDS011;47054;39.716;2.904;2023-02-19T03:27:32;11.90;;;6.07;;
61188;SDS011;47054;39.716;2.904;2023-02-19T03:30:20;13.32;;;6.68;;
61188;SDS011;47054;39.716;2.904;2023-02-19T03:33:09;13.93;;;7.30;;
61188;SDS011;47054;39.716;2.904;2023-02-19T03:35:59;13.18;;;6.75;;
61188;SDS011;47054;39.716;2.904;2023-02-19T03:38:52;12.35;;;6.57;;
61188;SDS011;47054;39.716;2.904;2023-02-19T03:44:44;13.18;;;7.18;;
61188;SDS011;47054;39.716;2.904;2023-02-19T03:47:42;12.15;;;6.85;;
61188;SDS011;47054;39.716;2.904;2023-02-19T03:54:26;10.75;;;5.93;;
61188;SDS011;47054;39.716;2.904;2023-02-19T03:57:13;11.02;;;5.78;;
61188;SDS011;47054;39.716;2.904;2023-02-19T04:02:57;11.23;;;6.07;;
61188;SDS011;47054;39.716;2.904;2023-02-19T04:05:51;11.98;;;6.35;;
61188;SDS011;47054;39.716;2.904;2023-02-19T04:11:29;10.25;;;5.95;;
61188;SDS011;47054;39.716;2.904;2023-02-19T04:14:25;11.68;;;5.78;;
61188;SDS011;47054;39.716;2.904;2023-02-19T04:17:19;12.48;;;6.65;;
61188;SDS011;47054;39.716;2.904;2023-02-19T04:20:07;10.07;;;5.70;;
61188;SDS011;47054;39.716;2.904;2023-02-19T04:22:53;10.43;;;5.60;;
61188;SDS011;47054;39.716;2.904;2023-02-19T04:25:40;10.23;;;5.53;;
61188;SDS011;47054;39.716;2.904;2023-02-19T04:28:28;9.88;;;5.55;;
61188;SDS011;47054;39.716;2.904;2023-02-19T04:31:12;11.55;;;6.18;;
61188;SDS011;47054;39.716;2.904;2023-02-19T04:33:57;11.75;;;6.32;;
61188;SDS011;47054;39.716;2.904;2023-02-19T04:36:42;11.07;;;6.05;;
61188;SDS011;47054;39.716;2.904;2023-02-19T04:39:26;10.93;;;6.10;;
61188;SDS011;47054;39.716;2.904;2023-02-19T04:42:11;9.93;;;5.63;;
61188;SDS011;47054;39.716;2.904;2023-02-19T04:44:55;10.13;;;5.90;;
61188;SDS011;47054;39.716;2.904;2023-02-19T04:47:40;11.40;;;5.55;;
61188;SDS011;47054;39.716;2.904;2023-02-19T04:50:24;11.65;;;6.07;;
61188;SDS011;47054;39.716;2.904;2023-02-19T04:53:09;10.68;;;5.97;;
61188;SDS011;47054;39.716;2.904;2023-02-19T04:55:54;10.05;;;5.57;;
61188;SDS011;47054;39.716;2.904;2023-02-19T04:58:39;7.80;;;4.65;;
61188;SDS011;47054;39.716;2.904;2023-02-19T05:01:25;10.60;;;5.88;;
61188;SDS011;47054;39.716;2.904;2023-02-19T05:04:09;9.88;;;5.25;;
61188;SDS011;47054;39.716;2.904;2023-02-19T05:06:54;11.32;;;5.68;;
61188;SDS011;47054;39.716;2.904;2023-02-19T05:09:39;9.30;;;4.82;;
61188;SDS011;47054;39.716;2.904;2023-02-19T05:12:24;9.27;;;5.00;;
61188;SDS011;47054;39.716;2.904;2023-02-19T05:15:10;8.40;;;4.40;;
61188;SDS011;47054;39.716;2.904;2023-02-19T05:17:54;10.63;;;5.07;;
61188;SDS011;47054;39.716;2.904;2023-02-19T05:20:39;10.95;;;5.32;;
61188;SDS011;47054;39.716;2.904;2023-02-19T05:23:24;10.50;;;4.72;;
61188;SDS011;47054;39.716;2.904;2023-02-19T05:26:14;9.48;;;4.90;;
61188;SDS011;47054;39.716;2.904;2023-02-19T05:29:01;9.70;;;4.80;;
61188;SDS011;47054;39.716;2.904;2023-02-19T05:31:46;9.88;;;5.00;;
61188;SDS011;47054;39.716;2.904;2023-02-19T05:34:31;8.20;;;4.63;;
61188;SDS011;47054;39.716;2.904;2023-02-19T05:37:16;8.75;;;4.53;;
61188;SDS011;47054;39.716;2.904;2023-02-19T05:40:00;8.10;;;4.65;;
61188;SDS011;47054;39.716;2.904;2023-02-19T05:42:45;11.10;;;5.25;;
61188;SDS011;47054;39.716;2.904;2023-02-19T05:45:29;8.43;;;4.55;;
61188;SDS011;47054;39.716;2.904;2023-02-19T05:48:15;7.80;;;4.75;;
61188;SDS011;47054;39.716;2.904;2023-02-19T05:51:08;7.90;;;4.35;;
61188;SDS011;47054;39.716;2.904;2023-02-19T05:53:54;8.27;;;4.05;;
61188;SDS011;47054;39.716;2.904;2023-02-19T05:56:40;8.50;;;4.57;;
61188;SDS011;47054;39.716;2.904;2023-02-19T05:59:26;7.65;;;4.45;;
61188;SDS011;47054;39.716;2.904;2023-02-19T06:02:11;8.18;;;4.55;;
61188;SDS011;47054;39.716;2.904;2023-02-19T06:04:55;7.50;;;4.35;;
61188;SDS011;47054;39.716;2.904;2023-02-19T06:07:40;8.27;;;4.03;;
61188;SDS011;47054;39.716;2.904;2023-02-19T06:10:26;6.75;;;4.00;;
61188;SDS011;47054;39.716;2.904;2023-02-19T06:13:12;7.32;;;4.30;;
61188;SDS011;47054;39.716;2.904;2023-02-19T06:15:56;7.00;;;3.72;;
61188;SDS011;47054;39.716;2.904;2023-02-19T06:18:41;7.45;;;4.40;;
61188;SDS011;47054;39.716;2.904;2023-02-19T06:21:25;8.27;;;4.38;;
61188;SDS011;47054;39.716;2.904;2023-02-19T06:24:09;9.20;;;4.03;;
61188;SDS011;47054;39.716;2.904;2023-02-19T06:26:54;6.43;;;3.95;;
61188;SDS011;47054;39.716;2.904;2023-02-19T06:29:39;7.40;;;4.30;;
61188;SDS011;47054;39.716;2.904;2023-02-19T06:32:23;8.18;;;3.88;;
61188;SDS011;47054;39.716;2.904;2023-02-19T06:35:08;6.78;;;4.28;;
61188;SDS011;47054;39.716;2.904;2023-02-19T06:37:54;7.15;;;3.80;;
61188;SDS011;47054;39.716;2.904;2023-02-19T06:40:39;7.60;;;3.67;;
61188;SDS011;47054;39.716;2.904;2023-02-19T06:43:23;6.65;;;3.70;;
61188;SDS011;47054;39.716;2.904;2023-02-19T06:46:09;7.57;;;3.75;;
61188;SDS011;47054;39.716;2.904;2023-02-19T06:48:55;6.55;;;3.45;;
61188;SDS011;47054;39.716;2.904;2023-02-19T06:51:40;5.57;;;3.25;;
61188;SDS011;47054;39.716;2.904;2023-02-19T06:54:26;7.45;;;3.63;;
61188;SDS011;47054;39.716;2.904;2023-02-19T06:57:10;6.93;;;4.20;;
61188;SDS011;47054;39.716;2.904;2023-02-19T06:59:55;6.50;;;3.58;;
61188;SDS011;47054;39.716;2.904;2023-02-19T07:02:39;5.75;;;3.42;;
61188;SDS011;47054;39.716;2.904;2023-02-19T07:05:24;5.88;;;3.33;;
61188;SDS011;47054;39.716;2.904;2023-02-19T07:08:09;7.13;;;3.95;;
61188;SDS011;47054;39.716;2.904;2023-02-19T07:10:56;6.57;;;3.70;;
61188;SDS011;47054;39.716;2.904;2023-02-19T07:13:42;7.88;;;3.78;;
61188;SDS011;47054;39.716;2.904;2023-02-19T07:16:26;6.20;;;3.45;;
61188;SDS011;47054;39.716;2.904;2023-02-19T07:19:12;5.75;;;3.30;;
61188;SDS011;47054;39.716;2.904;2023-02-19T07:21:57;6.35;;;3.75;;
61188;SDS011;47054;39.716;2.904;2023-02-19T07:24:42;6.63;;;3.97;;
61188;SDS011;47054;39.716;2.904;2023-02-19T07:27:27;7.85;;;3.90;;
61188;SDS011;47054;39.716;2.904;2023-02-19T07:30:12;8.10;;;3.88;;
61188;SDS011;47054;39.716;2.904;2023-02-19T07:32:56;7.18;;;4.00;;
61188;SDS011;47054;39.716;2.904;2023-02-19T07:35:48;8.93;;;4.88;;
61188;SDS011;47054;39.716;2.904;2023-02-19T07:38:34;6.82;;;3.83;;
61188;SDS011;47054;39.716;2.904;2023-02-19T07:41:18;8.85;;;4.47;;
61188;SDS011;47054;39.716;2.904;2023-02-19T07:44:06;9.10;;;4.50;;
61188;SDS011;47054;39.716;2.904;2023-02-19T07:46:50;9.18;;;4.22;;
61188;SDS011;47054;39.716;2.904;2023-02-19T07:49:35;9.98;;;4.47;;
61188;SDS011;47054;39.716;2.904;2023-02-19T07:52:20;8.93;;;4.63;;
61188;SDS011;47054;39.716;2.904;2023-02-19T07:55:04;9.05;;;4.35;;
61188;SDS011;47054;39.716;2.904;2023-02-19T07:57:49;11.27;;;4.78;;
61188;SDS011;47054;39.716;2.904;2023-02-19T08:00:34;7.18;;;4.30;;
61188;SDS011;47054;39.716;2.904;2023-02-19T08:03:18;9.82;;;4.80;;
61188;SDS011;47054;39.716;2.904;2023-02-19T08:06:03;9.07;;;3.92;;
61188;SDS011;47054;39.716;2.904;2023-02-19T08:08:49;8.45;;;4.20;;
61188;SDS011;47054;39.716;2.904;2023-02-19T08:11:34;9.98;;;4.43;;
61188;SDS011;47054;39.716;2.904;2023-02-19T08:14:37;8.27;;;3.72;;
61188;SDS011;47054;39.716;2.904;2023-02-19T08:17:22;8.13;;;4.35;;
61188;SDS011;47054;39.716;2.904;2023-02-19T08:20:07;8.93;;;4.22;;
61188;SDS011;47054;39.716;2.904;2023-02-19T08:22:52;9.43;;;3.97;;
61188;SDS011;47054;39.716;2.904;2023-02-19T08:25:37;7.07;;;4.10;;
61188;SDS011;47054;39.716;2.904;2023-02-19T08:28:22;11.25;;;4.28;;
61188;SDS011;47054;39.716;2.904;2023-02-19T08:31:08;9.50;;;4.65;;
61188;SDS011;47054;39.716;2.904;2023-02-19T08:33:54;9.93;;;4.63;;
61188;SDS011;47054;39.716;2.904;2023-02-19T08:36:38;8.43;;;4.20;;
61188;SDS011;47054;39.716;2.904;2023-02-19T08:39:23;7.88;;;4.25;;
61188;SDS011;47054;39.716;2.904;2023-02-19T08:42:08;10.85;;;4.25;;
61188;SDS011;47054;39.716;2.904;2023-02-19T08:44:52;8.05;;;4.22;;
61188;SDS011;47054;39.716;2.904;2023-02-19T08:47:38;8.00;;;4.10;;
61188;SDS011;47054;39.716;2.904;2023-02-19T08:50:23;7.88;;;4.38;;
61188;SDS011;47054;39.716;2.904;2023-02-19T08:53:08;9.50;;;4.18;;
61188;SDS011;47054;39.716;2.904;2023-02-19T08:55:53;7.63;;;3.83;;
61188;SDS011;47054;39.716;2.904;2023-02-19T08:58:39;10.20;;;4.57;;
61188;SDS011;47054;39.716;2.904;2023-02-19T09:01:24;10.82;;;4.50;;
61188;SDS011;47054;39.716;2.904;2023-02-19T09:04:10;7.97;;;4.05;;
61188;SDS011;47054;39.716;2.904;2023-02-19T09:06:55;9.35;;;4.38;;
61188;SDS011;47054;39.716;2.904;2023-02-19T09:09:39;8.38;;;3.90;;
61188;SDS011;47054;39.716;2.904;2023-02-19T09:12:24;7.38;;;3.97;;
61188;SDS011;47054;39.716;2.904;2023-02-19T09:15:08;8.85;;;4.78;;
61188;SDS011;47054;39.716;2.904;2023-02-19T09:17:54;8.85;;;4.38;;
61188;SDS011;47054;39.716;2.904;2023-02-19T09:20:39;7.43;;;3.90;;
61188;SDS011;47054;39.716;2.904;2023-02-19T09:23:24;9.63;;;4.00;;
61188;SDS011;47054;39.716;2.904;2023-02-19T09:26:09;7.80;;;3.92;;
61188;SDS011;47054;39.716;2.904;2023-02-19T09:28:54;11.27;;;4.88;;
61188;SDS011;47054;39.716;2.904;2023-02-19T09:31:39;9.23;;;4.18;;
61188;SDS011;47054;39.716;2.904;2023-02-19T09:34:24;7.90;;;4.03;;
61188;SDS011;47054;39.716;2.904;2023-02-19T09:37:09;9.10;;;4.38;;
61188;SDS011;47054;39.716;2.904;2023-02-19T09:39:57;8.57;;;4.18;;
61188;SDS011;47054;39.716;2.904;2023-02-19T09:42:41;7.63;;;4.13;;
61188;SDS011;47054;39.716;2.904;2023-02-19T09:45:26;8.90;;;4.68;;
61188;SDS011;47054;39.716;2.904;2023-02-19T09:48:11;12.52;;;5.32;;
61188;SDS011;47054;39.716;2.904;2023-02-19T09:50:56;10.93;;;4.60;;
61188;SDS011;47054;39.716;2.904;2023-02-19T09:53:43;8.98;;;4.55;;
61188;SDS011;47054;39.716;2.904;2023-02-19T09:56:32;11.32;;;4.93;;
61188;SDS011;47054;39.716;2.904;2023-02-19T09:59:19;8.65;;;4.65;;
61188;SDS011;47054;39.716;2.904;2023-02-19T10:02:18;9.05;;;4.88;;
61188;SDS011;47054;39.716;2.904;2023-02-19T10:05:10;10.30;;;4.82;;
61188;SDS011;47054;39.716;2.904;2023-02-19T10:07:57;10.35;;;4.57;;
61188;SDS011;47054;39.716;2.904;2023-02-19T10:10:42;12.23;;;5.05;;
61188;SDS011;47054;39.716;2.904;2023-02-19T10:13:35;10.48;;;5.50;;
61188;SDS011;47054;39.716;2.904;2023-02-19T10:16:24;12.25;;;5.30;;
61188;SDS011;47054;39.716;2.904;2023-02-19T10:19:11;9.05;;;4.72;;
61188;SDS011;47054;39.716;2.904;2023-02-19T10:21:56;10.00;;;4.82;;
61188;SDS011;47054;39.716;2.904;2023-02-19T10:24:42;19.45;;;8.55;;
61188;SDS011;47054;39.716;2.904;2023-02-19T10:27:28;13.93;;;7.57;;
61188;SDS011;47054;39.716;2.904;2023-02-19T10:30:21;17.20;;;8.00;;
61188;SDS011;47054;39.716;2.904;2023-02-19T10:33:12;22.45;;;7.43;;
61188;SDS011;47054;39.716;2.904;2023-02-19T10:36:04;14.82;;;6.95;;
61188;SDS011;47054;39.716;2.904;2023-02-19T10:41:35;13.57;;;6.45;;
61188;SDS011;47054;39.716;2.904;2023-02-19T10:44:25;18.55;;;6.72;;
61188;SDS011;47054;39.716;2.904;2023-02-19T10:47:22;10.82;;;6.05;;
61188;SDS011;47054;39.716;2.904;2023-02-19T10:50:30;10.40;;;5.72;;
61188;SDS011;47054;39.716;2.904;2023-02-19T10:53:19;10.25;;;5.90;;
61188;SDS011;47054;39.716;2.904;2023-02-19T11:02:07;14.98;;;5.63;;
61188;SDS011;47054;39.716;2.904;2023-02-19T11:08:00;14.00;;;6.10;;
61188;SDS011;47054;39.716;2.904;2023-02-19T11:10:44;15.55;;;6.05;;
61188;SDS011;47054;39.716;2.904;2023-02-19T11:13:31;10.80;;;5.13;;
61188;SDS011;47054;39.716;2.904;2023-02-19T11:16:21;11.68;;;5.90;;
61188;SDS011;47054;39.716;2.904;2023-02-19T11:19:50;10.98;;;5.28;;
61188;SDS011;47054;39.716;2.904;2023-02-19T11:22:38;9.50;;;5.03;;
61188;SDS011;47054;39.716;2.904;2023-02-19T11:25:25;13.82;;;5.57;;
61188;SDS011;47054;39.716;2.904;2023-02-19T11:31:23;13.15;;;5.78;;
61188;SDS011;47054;39.716;2.904;2023-02-19T11:37:18;11.70;;;6.15;;
61188;SDS011;47054;39.716;2.904;2023-02-19T11:40:04;10.40;;;5.57;;
61188;SDS011;47054;39.716;2.904;2023-02-19T11:43:01;12.13;;;5.68;;
61188;SDS011;47054;39.716;2.904;2023-02-19T11:46:16;8.07;;;4.82;;
61188;SDS011;47054;39.716;2.904;2023-02-19T11:55:17;7.25;;;4.20;;
61188;SDS011;47054;39.716;2.904;2023-02-19T12:01:22;9.07;;;4.60;;
61188;SDS011;47054;39.716;2.904;2023-02-19T12:04:49;11.50;;;5.38;;
61188;SDS011;47054;39.716;2.904;2023-02-19T12:16:37;33.00;;;10.90;;
61188;SDS011;47054;39.716;2.904;2023-02-19T12:41:06;18.65;;;7.90;;
61188;SDS011;47054;39.716;2.904;2023-02-19T12:44:19;12.02;;;4.53;;
61188;SDS011;47054;39.716;2.904;2023-02-19T12:47:14;8.50;;;4.07;;
61188;SDS011;47054;39.716;2.904;2023-02-19T12:52:58;13.18;;;5.13;;
61188;SDS011;47054;39.716;2.904;2023-02-19T12:55:48;10.52;;;5.55;;
61188;SDS011;47054;39.716;2.904;2023-02-19T12:58:37;7.65;;;4.13;;
61188;SDS011;47054;39.716;2.904;2023-02-19T13:01:27;8.33;;;4.10;;
61188;SDS011;47054;39.716;2.904;2023-02-19T13:04:37;9.82;;;4.50;;
61188;SDS011;47054;39.716;2.904;2023-02-19T13:07:38;12.25;;;3.67;;
61188;SDS011;47054;39.716;2.904;2023-02-19T13:13:22;6.55;;;3.75;;
61188;SDS011;47054;39.716;2.904;2023-02-19T13:16:13;8.18;;;3.90;;
61188;SDS011;47054;39.716;2.904;2023-02-19T13:19:01;7.22;;;4.10;;
61188;SDS011;47054;39.716;2.904;2023-02-19T13:25:16;5.47;;;3.38;;
61188;SDS011;47054;39.716;2.904;2023-02-19T13:28:17;6.25;;;3.80;;
61188;SDS011;47054;39.716;2.904;2023-02-19T13:31:17;7.07;;;3.95;;
61188;SDS011;47054;39.716;2.904;2023-02-19T13:36:56;6.50;;;3.55;;
61188;SDS011;47054;39.716;2.904;2023-02-19T13:39:52;8.75;;;3.63;;
61188;SDS011;47054;39.716;2.904;2023-02-19T13:42:38;7.18;;;3.80;;
61188;SDS011;47054;39.716;2.904;2023-02-19T13:45:43;7.93;;;3.50;;
61188;SDS011;47054;39.716;2.904;2023-02-19T13:48:30;7.75;;;3.30;;
61188;SDS011;47054;39.716;2.904;2023-02-19T13:54:11;14.75;;;3.55;;
61188;SDS011;47054;39.716;2.904;2023-02-19T14:00:45;5.38;;;3.33;;
61188;SDS011;47054;39.716;2.904;2023-02-19T14:06:20;7.75;;;3.60;;
61188;SDS011;47054;39.716;2.904;2023-02-19T14:09:40;7.38;;;3.40;;
61188;SDS011;47054;39.716;2.904;2023-02-19T14:12:34;4.90;;;3.03;;
61188;SDS011;47054;39.716;2.904;2023-02-19T14:18:43;7.82;;;3.47;;
61188;SDS011;47054;39.716;2.904;2023-02-19T14:21:35;5.90;;;3.00;;
61188;SDS011;47054;39.716;2.904;2023-02-19T14:24:22;8.48;;;3.38;;
61188;SDS011;47054;39.716;2.904;2023-02-19T14:27:08;6.28;;;3.30;;
61188;SDS011;47054;39.716;2.904;2023-02-19T14:29:53;8.45;;;3.83;;
61188;SDS011;47054;39.716;2.904;2023-02-19T14:32:38;6.28;;;3.55;;
61188;SDS011;47054;39.716;2.904;2023-02-19T14:35:25;7.30;;;4.05;;
61188;SDS011;47054;39.716;2.904;2023-02-19T14:38:20;6.55;;;3.38;;
61188;SDS011;47054;39.716;2.904;2023-02-19T14:41:12;12.82;;;3.60;;
61188;SDS011;47054;39.716;2.904;2023-02-19T14:43:59;8.90;;;3.80;;
61188;SDS011;47054;39.716;2.904;2023-02-19T14:46:52;6.50;;;3.58;;
61188;SDS011;47054;39.716;2.904;2023-02-19T14:52:35;7.97;;;3.47;;
61188;SDS011;47054;39.716;2.904;2023-02-19T14:55:33;5.50;;;3.17;;
61188;SDS011;47054;39.716;2.904;2023-02-19T14:58:23;6.10;;;3.60;;
61188;SDS011;47054;39.716;2.904;2023-02-19T15:01:25;7.18;;;3.25;;
61188;SDS011;47054;39.716;2.904;2023-02-19T15:04:20;6.28;;;3.17;;
61188;SDS011;47054;39.716;2.904;2023-02-19T15:07:07;8.10;;;3.58;;
61188;SDS011;47054;39.716;2.904;2023-02-19T15:09:57;5.78;;;3.22;;
61188;SDS011;47054;39.716;2.904;2023-02-19T15:12:48;5.75;;;3.63;;
61188;SDS011;47054;39.716;2.904;2023-02-19T15:15:39;8.32;;;4.30;;
61188;SDS011;47054;39.716;2.904;2023-02-19T15:18:29;8.18;;;4.63;;
61188;SDS011;47054;39.716;2.904;2023-02-19T15:21:22;7.22;;;4.10;;
61188;SDS011;47054;39.716;2.904;2023-02-19T15:24:09;15.20;;;7.47;;
61188;SDS011;47054;39.716;2.904;2023-02-19T15:26:57;16.80;;;7.38;;
61188;SDS011;47054;39.716;2.904;2023-02-19T15:29:46;16.40;;;6.80;;
61188;SDS011;47054;39.716;2.904;2023-02-19T15:32:35;10.77;;;5.93;;
61188;SDS011;47054;39.716;2.904;2023-02-19T15:35:19;13.05;;;5.97;;
61188;SDS011;47054;39.716;2.904;2023-02-19T15:38:07;13.85;;;6.20;;
61188;SDS011;47054;39.716;2.904;2023-02-19T15:40:55;13.55;;;6.05;;
61188;SDS011;47054;39.716;2.904;2023-02-19T15:43:43;13.70;;;5.80;;
61188;SDS011;47054;39.716;2.904;2023-02-19T15:46:41;11.02;;;5.65;;
61188;SDS011;47054;39.716;2.904;2023-02-19T15:49:28;10.38;;;5.15;;
61188;SDS011;47054;39.716;2.904;2023-02-19T15:58:50;10.15;;;5.20;;
61188;SDS011;47054;39.716;2.904;2023-02-19T16:01:42;10.57;;;4.97;;
61188;SDS011;47054;39.716;2.904;2023-02-19T16:04:27;9.57;;;5.38;;
61188;SDS011;47054;39.716;2.904;2023-02-19T16:07:24;10.27;;;5.85;;
61188;SDS011;47054;39.716;2.904;2023-02-19T16:10:18;8.70;;;4.93;;
61188;SDS011;47054;39.716;2.904;2023-02-19T16:13:05;11.73;;;4.93;;
61188;SDS011;47054;39.716;2.904;2023-02-19T16:15:55;9.63;;;5.05;;
61188;SDS011;47054;39.716;2.904;2023-02-19T16:18:47;12.68;;;5.25;;
61188;SDS011;47054;39.716;2.904;2023-02-19T16:21:34;12.13;;;5.70;;
61188;SDS011;47054;39.716;2.904;2023-02-19T16:24:33;10.18;;;4.85;;
61188;SDS011;47054;39.716;2.904;2023-02-19T16:33:30;7.85;;;4.68;;
61188;SDS011;47054;39.716;2.904;2023-02-19T16:36:33;10.10;;;5.03;;
61188;SDS011;47054;39.716;2.904;2023-02-19T16:39:19;9.30;;;4.55;;
61188;SDS011;47054;39.716;2.904;2023-02-19T16:44:51;8.63;;;4.80;;
61188;SDS011;47054;39.716;2.904;2023-02-19T16:47:36;10.25;;;5.22;;
61188;SDS011;47054;39.716;2.904;2023-02-19T16:50:24;8.80;;;5.00;;
61188;SDS011;47054;39.716;2.904;2023-02-19T16:53:30;11.38;;;4.78;;
61188;SDS011;47054;39.716;2.904;2023-02-19T16:56:17;9.15;;;4.97;;
61188;SDS011;47054;39.716;2.904;2023-02-19T16:59:05;10.55;;;4.78;;
61188;SDS011;47054;39.716;2.904;2023-02-19T17:01:51;9.48;;;4.43;;
61188;SDS011;47054;39.716;2.904;2023-02-19T17:04:35;8.40;;;4.60;;
61188;SDS011;47054;39.716;2.904;2023-02-19T17:07:20;9.57;;;4.65;;
61188;SDS011;47054;39.716;2.904;2023-02-19T17:10:05;8.60;;;4.72;;
61188;SDS011;47054;39.716;2.904;2023-02-19T17:12:51;8.02;;;4.63;;
61188;SDS011;47054;39.716;2.904;2023-02-19T17:15:36;8.90;;;4.85;;
61188;SDS011;47054;39.716;2.904;2023-02-19T17:18:21;9.20;;;5.25;;
61188;SDS011;47054;39.716;2.904;2023-02-19T17:21:12;8.23;;;4.72;;
61188;SDS011;47054;39.716;2.904;2023-02-19T17:23:59;7.68;;;4.90;;
61188;SDS011;47054;39.716;2.904;2023-02-19T17:26:43;8.05;;;5.03;;
61188;SDS011;47054;39.716;2.904;2023-02-19T17:29:28;8.98;;;4.70;;
61188;SDS011;47054;39.716;2.904;2023-02-19T17:32:16;9.02;;;4.88;;
61188;SDS011;47054;39.716;2.904;2023-02-19T17:35:02;9.30;;;4.95;;
61188;SDS011;47054;39.716;2.904;2023-02-19T17:37:46;9.18;;;4.82;;
61188;SDS011;47054;39.716;2.904;2023-02-19T17:40:31;8.23;;;4.82;;
61188;SDS011;47054;39.716;2.904;2023-02-19T17:43:16;8.27;;;4.57;;
61188;SDS011;47054;39.716;2.904;2023-02-19T17:46:00;8.90;;;4.93;;
61188;SDS011;47054;39.716;2.904;2023-02-19T17:48:45;8.10;;;5.05;;
61188;SDS011;47054;39.716;2.904;2023-02-19T17:51:30;8.23;;;4.78;;
61188;SDS011;47054;39.716;2.904;2023-02-19T17:54:14;7.72;;;4.55;;
61188;SDS011;47054;39.716;2.904;2023-02-19T17:56:59;8.07;;;4.60;;
61188;SDS011;47054;39.716;2.904;2023-02-19T17:59:43;9.27;;;5.20;;
61188;SDS011;47054;39.716;2.904;2023-02-19T18:02:29;7.72;;;4.95;;
61188;SDS011;47054;39.716;2.904;2023-02-19T18:05:14;7.97;;;4.30;;
61188;SDS011;47054;39.716;2.904;2023-02-19T18:07:58;7.90;;;4.43;;
61188;SDS011;47054;39.716;2.904;2023-02-19T18:10:43;8.02;;;4.63;;
61188;SDS011;47054;39.716;2.904;2023-02-19T18:13:27;9.27;;;4.80;;
61188;SDS011;47054;39.716;2.904;2023-02-19T18:16:12;9.45;;;5.07;;
61188;SDS011;47054;39.716;2.904;2023-02-19T18:18:58;7.65;;;4.63;;
61188;SDS011;47054;39.716;2.904;2023-02-19T18:21:45;10.60;;;5.28;;
61188;SDS011;47054;39.716;2.904;2023-02-19T18:24:29;8.82;;;4.63;;
61188;SDS011;47054;39.716;2.904;2023-02-19T18:27:14;7.70;;;4.75;;
61188;SDS011;47054;39.716;2.904;2023-02-19T18:30:00;7.88;;;4.57;;
61188;SDS011;47054;39.716;2.904;2023-02-19T18:32:45;8.27;;;4.65;;
61188;SDS011;47054;39.716;2.904;2023-02-19T18:35:31;7.88;;;4.50;;
61188;SDS011;47054;39.716;2.904;2023-02-19T18:38:16;8.18;;;4.70;;
61188;SDS011;47054;39.716;2.904;2023-02-19T18:41:01;6.93;;;4.43;;
61188;SDS011;47054;39.716;2.904;2023-02-19T18:43:46;8.95;;;4.65;;
61188;SDS011;47054;39.716;2.904;2023-02-19T18:46:30;8.45;;;4.57;;
61188;SDS011;47054;39.716;2.904;2023-02-19T18:49:15;8.55;;;4.72;;
61188;SDS011;47054;39.716;2.904;2023-02-19T18:52:01;9.02;;;5.20;;
61188;SDS011;47054;39.716;2.904;2023-02-19T18:54:46;7.82;;;4.53;;